createdAt,value
2022-09-05T00:00:17.517Z,96.14
2022-09-05T00:01:16.525Z,96.44
2022-09-05T00:02:17.553Z,96.34
2022-09-05T00:03:16.757Z,96.64
2022-09-05T00:04:25.006Z,96.14
2022-09-05T00:05:17.507Z,96.34
2022-09-05T00:06:16.505Z,96.44
2022-09-05T00:07:41.280Z,96.38
2022-09-05T00:08:17.489Z,96.64
2022-09-05T00:09:16.505Z,96.44
2022-09-05T00:10:16.520Z,96.23
2022-09-05T00:11:40.659Z,96.23
2022-09-05T00:12:18.466Z,95.53
2022-09-05T00:13:16.495Z,96.08
2022-09-05T00:14:16.453Z,95.67
2022-09-05T00:15:18.957Z,96.28
2022-09-05T00:16:17.473Z,95.98
2022-09-05T00:17:16.388Z,96.08
2022-09-05T00:23:29.080Z,96.23
2022-09-05T00:24:20.904Z,96.48
2022-09-05T00:24:23.041Z,96.44
2022-09-05T00:24:24.864Z,96.59
2022-09-05T00:24:26.077Z,95.78
2022-09-05T00:24:32.277Z,96.34
2022-09-05T00:24:37.403Z,96.18
2022-09-05T00:25:33.234Z,96.14
2022-09-05T00:26:18.371Z,96.28
2022-09-05T00:27:16.432Z,95.98
2022-09-05T00:28:25.286Z,96.18
2022-09-05T00:29:24.441Z,96.03
2022-09-05T00:31:06.225Z,95.98
2022-09-05T00:31:55.065Z,95.83
2022-09-05T00:32:17.350Z,96.08
2022-09-05T00:33:17.876Z,96.08
2022-09-05T00:34:16.278Z,96.08
2022-09-05T00:35:16.357Z,96.28
2022-09-05T00:36:16.259Z,95.98
2022-09-05T00:37:17.058Z,96.48
2022-09-05T00:38:16.300Z,96.48
2022-09-05T00:39:16.227Z,96.48
2022-09-05T00:40:18.605Z,96.28
2022-09-05T00:41:16.208Z,96.18
2022-09-05T00:42:16.210Z,95.67
2022-09-05T00:43:16.226Z,95.57
2022-09-05T00:44:16.233Z,95.92
2022-09-05T00:45:19.829Z,95.78
2022-09-05T00:46:16.251Z,95.82
2022-09-05T00:47:16.152Z,96.08
2022-09-05T00:48:16.193Z,96.33
2022-09-05T00:49:16.167Z,95.92
2022-09-05T00:50:16.158Z,96.23
2022-09-05T00:51:16.180Z,95.92
2022-09-05T00:52:16.106Z,96.33
2022-09-05T00:53:16.147Z,96.43
2022-09-05T00:54:16.121Z,96.73
2022-09-05T00:55:16.135Z,96.63
2022-09-05T00:56:16.099Z,96.53
2022-09-05T00:57:17.926Z,96.73
2022-09-05T00:58:16.191Z,97.04
2022-09-05T00:59:16.131Z,96.83
2022-09-05T01:00:17.889Z,96.43
2022-09-05T01:01:21.131Z,97.08
2022-09-05T01:02:16.161Z,97.39
2022-09-05T01:03:16.164Z,97.44
2022-09-05T01:04:16.055Z,97.04
2022-09-05T01:05:16.109Z,97.19
2022-09-05T01:06:16.023Z,96.43
2022-09-05T01:07:16.042Z,97.34
2022-09-05T01:08:16.090Z,97.24
2022-09-05T01:09:16.995Z,97.24
2022-09-05T01:10:16.067Z,96.53
2022-09-05T01:11:17.024Z,96.63
2022-09-05T01:12:16.053Z,97.04
2022-09-05T01:13:16.011Z,96.94
2022-09-05T01:14:15.987Z,96.43
2022-09-05T01:15:16.051Z,97.44
2022-09-05T01:16:16.059Z,97.34
2022-09-05T01:17:16.009Z,97.24
2022-09-05T01:18:16.024Z,97.24
2022-09-05T01:19:16.262Z,97.34
2022-09-05T01:20:19.290Z,97.14
2022-09-05T01:21:16.013Z,97.44
2022-09-05T01:22:15.940Z,97.55
2022-09-05T01:23:16.068Z,97.49
2022-09-05T01:24:15.958Z,96.94
2022-09-05T01:25:15.924Z,97.14
2022-09-05T01:26:15.952Z,97.34
2022-09-05T01:27:15.860Z,97.89
2022-09-05T01:29:14.054Z,97.80
2022-09-05T01:29:19.729Z,97.49
2022-09-05T01:30:16.884Z,97.14
2022-09-05T01:31:15.898Z,97.29
2022-09-05T01:32:15.894Z,97.49
2022-09-05T01:33:15.821Z,96.78
2022-09-05T01:34:16.572Z,97.03
2022-09-05T01:35:16.853Z,96.58
2022-09-05T01:36:15.808Z,97.13
2022-09-05T01:37:33.014Z,96.62
2022-09-05T01:38:16.769Z,96.62
2022-09-05T01:40:14.698Z,96.83
2022-09-05T01:40:17.223Z,96.62
2022-09-05T01:41:18.426Z,97.03
2022-09-05T01:42:16.716Z,97.33
2022-09-05T01:43:15.748Z,97.53
2022-09-05T01:44:15.755Z,97.48
2022-09-05T02:02:38.710Z,98.44
2022-09-05T02:03:38.511Z,98.65
2022-09-05T02:04:39.680Z,98.39
2022-09-05T02:05:48.675Z,98.54
2022-09-05T02:06:43.918Z,98.39
2022-09-05T02:07:39.660Z,98.09
2022-09-05T02:08:39.592Z,97.83
2022-09-05T02:09:39.603Z,98.39
2022-09-05T02:10:39.603Z,98.39
2022-09-05T02:11:39.606Z,98.44
2022-09-05T02:12:39.615Z,98.44
2022-09-05T02:13:39.597Z,98.54
2022-09-05T02:14:39.601Z,98.34
2022-09-05T02:16:13.742Z,98.44
2022-09-05T02:16:39.589Z,98.54
2022-09-05T02:17:51.023Z,98.34
2022-09-05T02:18:40.533Z,98.24
2022-09-05T02:19:39.534Z,98.28
2022-09-05T02:20:39.533Z,98.65
2022-09-05T02:21:55.663Z,98.65
2022-09-05T02:22:40.492Z,98.34
2022-09-05T02:23:41.898Z,97.93
2022-09-05T02:24:39.547Z,98.44
2022-09-05T02:26:01.197Z,97.93
2022-09-05T02:26:40.535Z,98.54
2022-09-05T02:28:04.310Z,98.49
2022-09-05T02:28:40.489Z,98.65
2022-09-05T02:29:39.462Z,98.65
2022-09-05T02:30:48.456Z,98.44
2022-09-05T02:31:40.551Z,98.34
2022-09-05T02:32:43.100Z,98.54
2022-09-05T02:33:39.431Z,98.49
2022-09-05T02:34:39.429Z,98.49
2022-09-05T02:35:39.428Z,98.18
2022-09-05T02:36:39.430Z,98.39
2022-09-05T02:38:19.939Z,98.59
2022-09-05T02:44:16.916Z,98.39
2022-09-05T02:45:08.639Z,98.59
2022-09-05T02:45:13.411Z,98.59
2022-09-05T02:45:14.211Z,98.49
2022-09-05T02:45:18.371Z,99.00
2022-09-05T02:45:18.590Z,99.51
2022-09-05T02:45:19.430Z,99.00
2022-09-05T02:45:40.433Z,99.10
2022-09-05T02:46:39.505Z,99.99
2022-09-05T02:47:39.320Z,99.99
2022-09-05T02:48:39.331Z,99.51
2022-09-05T02:52:21.287Z,99.20
2022-09-05T02:55:14.959Z,99.20
2022-09-05T02:57:24.772Z,99.81
2022-09-05T02:57:38.162Z,99.77
2022-09-05T02:57:38.993Z,99.41
2022-09-05T02:57:43.480Z,99.91
2022-09-05T02:57:46.832Z,99.71
2022-09-05T02:58:05.478Z,99.20
2022-09-05T02:58:05.874Z,99.10
2022-09-05T02:59:08.040Z,99.20
2022-09-05T02:59:41.228Z,99.20
2022-09-05T03:00:40.192Z,99.51
2022-09-05T03:01:39.305Z,99.20
2022-09-05T03:02:39.260Z,99.71
2022-09-05T03:03:39.422Z,99.99
2022-09-05T03:04:39.195Z,99.41
2022-09-05T03:05:39.207Z,99.61
2022-09-05T03:06:39.230Z,99.61
2022-09-05T03:07:39.216Z,99.10
2022-09-05T03:08:39.169Z,99.30
2022-09-05T03:09:39.187Z,99.15
2022-09-05T03:10:54.469Z,99.00
2022-09-05T03:11:40.155Z,98.74
2022-09-05T03:12:39.210Z,98.94
2022-09-05T03:13:50.140Z,98.54
2022-09-05T03:14:40.162Z,98.64
2022-09-05T03:15:39.169Z,98.64
2022-09-05T03:16:47.348Z,98.99
2022-09-05T03:17:40.106Z,98.89
2022-09-05T03:18:39.124Z,98.74
2022-09-05T03:19:46.114Z,99.15
2022-09-05T03:20:40.100Z,99.29
2022-09-05T03:21:39.063Z,99.19
2022-09-05T03:22:39.109Z,98.99
2022-09-05T03:23:39.062Z,98.58
2022-09-05T03:24:39.082Z,99.19
2022-09-05T03:25:39.067Z,98.99
2022-09-05T03:26:39.064Z,98.99
2022-09-05T03:27:39.052Z,99.19
2022-09-05T03:28:39.817Z,99.19
2022-09-05T03:29:39.015Z,99.29
2022-09-05T03:30:39.094Z,99.09
2022-09-05T03:31:38.995Z,99.19
2022-09-05T03:32:40.243Z,99.19
2022-09-05T03:33:38.967Z,99.40
2022-09-05T03:34:38.988Z,99.40
2022-09-05T03:35:39.955Z,99.75
2022-09-05T03:36:38.973Z,99.50
2022-09-05T03:37:38.958Z,99.29
2022-09-05T03:38:38.951Z,99.24
2022-09-05T03:39:39.040Z,99.04
2022-09-05T03:40:38.941Z,99.24
2022-09-05T03:41:40.610Z,98.83
2022-09-05T03:42:38.944Z,98.83
2022-09-05T03:43:38.900Z,99.04
2022-09-05T03:44:38.885Z,98.73
2022-09-05T03:45:38.882Z,99.04
2022-09-05T03:46:38.914Z,99.34
2022-09-05T04:04:37.930Z,99.99
2022-09-05T04:08:07.559Z,99.99
2022-09-05T04:08:10.906Z,99.99
2022-09-05T04:08:17.538Z,99.99
2022-09-05T04:08:17.883Z,99.99
2022-09-05T04:08:28.964Z,99.99
2022-09-05T04:08:41.288Z,99.99
2022-09-05T04:09:49.999Z,99.99
2022-09-05T04:10:31.902Z,99.99
2022-09-05T04:11:29.802Z,99.99
2022-09-05T04:12:29.796Z,99.99
2022-09-05T04:13:29.802Z,99.99
2022-09-05T04:14:29.801Z,99.99
2022-09-05T04:15:29.768Z,99.99
2022-09-05T04:16:29.817Z,99.99
2022-09-05T04:17:30.755Z,99.99
2022-09-05T04:18:32.794Z,99.99
2022-09-05T04:19:29.748Z,99.99
2022-09-05T04:20:29.768Z,99.99
2022-09-05T04:21:29.754Z,99.99
2022-09-05T04:22:29.775Z,99.99
2022-09-05T04:23:29.752Z,99.99
2022-09-05T04:24:29.741Z,99.99
2022-09-05T04:25:29.693Z,99.99
2022-09-05T04:26:29.713Z,99.99
2022-09-05T04:27:29.682Z,99.99
2022-09-05T04:28:29.695Z,99.99
2022-09-05T04:29:29.714Z,99.99
2022-09-05T04:30:39.007Z,99.99
2022-09-05T04:31:30.735Z,99.99
2022-09-05T04:32:29.670Z,99.90
2022-09-05T04:33:36.208Z,99.99
2022-09-05T04:34:30.660Z,99.99
2022-09-05T04:35:29.644Z,99.99
2022-09-05T04:36:29.628Z,99.99
2022-09-05T04:37:29.600Z,99.99
2022-09-05T04:38:30.602Z,99.99
2022-09-05T04:39:29.710Z,99.99
2022-09-05T04:40:32.765Z,99.79
2022-09-05T04:41:39.320Z,99.99
2022-09-05T04:42:30.558Z,99.99
2022-09-05T04:43:29.551Z,99.99
2022-09-05T04:44:30.606Z,99.99
2022-09-05T04:45:29.711Z,99.99
2022-09-05T04:46:29.624Z,99.79
2022-09-05T04:47:29.601Z,99.99
2022-09-05T04:48:30.283Z,99.69
2022-09-05T04:49:29.553Z,99.69
2022-09-05T04:50:37.205Z,99.99
2022-09-05T04:51:32.373Z,99.95
2022-09-05T04:52:32.283Z,99.79
2022-09-05T04:53:29.544Z,99.95
2022-09-05T04:54:30.087Z,99.39
2022-09-05T04:55:30.551Z,99.69
2022-09-05T04:56:29.554Z,99.43
2022-09-05T04:57:29.592Z,98.93
2022-09-05T04:58:42.050Z,98.68
2022-09-05T05:01:58.948Z,98.93
2022-09-05T05:05:59.853Z,99.18
2022-09-05T05:06:04.286Z,99.39
2022-09-05T05:06:10.664Z,99.08
2022-09-05T05:06:12.234Z,99.39
2022-09-05T05:06:13.727Z,99.18
2022-09-05T05:06:14.659Z,99.39
2022-09-05T05:06:44.042Z,99.49
2022-09-05T05:07:31.548Z,99.29
2022-09-05T05:08:39.095Z,98.98
2022-09-05T05:09:30.415Z,98.88
2022-09-05T05:11:51.133Z,99.08
2022-09-05T05:18:00.473Z,98.83
2022-09-05T05:18:00.927Z,99.29
2022-09-05T05:18:03.432Z,98.88
2022-09-05T05:18:10.386Z,98.77
2022-09-05T05:18:14.074Z,98.77
2022-09-05T05:18:14.829Z,98.57
2022-09-05T05:18:16.107Z,98.77
2022-09-05T05:18:39.509Z,98.83
2022-09-05T05:19:30.363Z,98.63
2022-09-05T05:20:42.384Z,98.52
2022-09-05T05:21:30.276Z,98.18
2022-09-05T05:22:29.274Z,97.32
2022-09-05T05:23:29.238Z,96.52
2022-09-05T05:24:29.241Z,95.92
2022-09-05T05:25:29.246Z,93.29
2022-09-05T05:26:29.247Z,91.68
2022-09-05T05:27:29.215Z,88.60
2022-09-05T05:28:29.243Z,87.30
2022-09-05T05:29:29.241Z,87.46
2022-09-05T05:30:29.190Z,85.46
2022-09-05T05:31:29.215Z,82.95
2022-09-05T05:32:45.854Z,81.05
2022-09-05T05:33:30.280Z,80.41
2022-09-05T05:34:29.211Z,79.27
2022-09-05T05:35:29.192Z,78.12
2022-09-05T05:36:29.187Z,76.77
2022-09-05T05:37:29.135Z,76.54
2022-09-05T05:38:29.178Z,75.73
2022-09-05T05:39:29.206Z,76.23
2022-09-05T05:40:29.153Z,77.08
2022-09-05T05:41:29.137Z,78.08
2022-09-05T05:42:29.147Z,77.55
2022-09-05T05:43:29.110Z,76.84
2022-09-05T05:44:29.084Z,75.79
2022-09-05T05:45:29.091Z,75.02
2022-09-05T05:46:29.159Z,75.35
2022-09-05T05:47:32.150Z,75.76
2022-09-05T05:48:29.075Z,76.60
2022-09-05T05:49:29.069Z,77.14
2022-09-05T05:50:29.079Z,78.08
2022-09-05T05:51:44.087Z,78.49
2022-09-05T05:52:30.046Z,77.58
2022-09-05T05:53:42.422Z,77.75
2022-09-05T05:54:30.039Z,76.64
2022-09-05T05:55:51.695Z,77.07
2022-09-05T05:56:30.200Z,75.86
2022-09-05T05:57:29.006Z,75.62
2022-09-05T05:58:29.339Z,74.78
2022-09-05T05:59:28.967Z,74.28
2022-09-05T06:00:30.142Z,72.94
2022-09-05T06:01:38.100Z,73.14
2022-09-05T06:02:30.094Z,72.80
2022-09-05T06:03:29.042Z,72.64
2022-09-05T06:04:28.989Z,72.71
2022-09-05T06:05:28.967Z,73.47
2022-09-05T06:06:28.946Z,75.76
2022-09-05T06:07:28.979Z,75.76
2022-09-05T06:10:06.514Z,76.16
2022-09-05T06:12:53.617Z,75.22
2022-09-05T06:14:50.284Z,76.26
2022-09-05T06:14:55.863Z,73.44
2022-09-05T06:14:55.982Z,71.96
2022-09-05T06:14:56.700Z,72.97
2022-09-05T06:14:57.750Z,74.68
2022-09-05T06:15:30.500Z,69.29
2022-09-05T06:16:28.930Z,70.09
2022-09-05T06:17:28.878Z,70.36
2022-09-05T06:18:28.868Z,70.19
2022-09-05T06:19:43.605Z,70.19
2022-09-05T06:22:07.805Z,69.93
2022-09-05T06:22:08.301Z,71.93
2022-09-05T06:22:29.798Z,71.59
2022-09-05T06:23:39.311Z,71.59
2022-09-05T06:24:29.860Z,71.16
2022-09-05T06:25:28.808Z,71.26
2022-09-05T06:26:28.807Z,70.59
2022-09-05T06:27:28.754Z,70.09
2022-09-05T06:28:28.786Z,70.83
2022-09-05T06:29:34.627Z,71.23
2022-09-05T06:30:31.089Z,70.39
2022-09-05T06:31:29.883Z,70.26
2022-09-05T06:32:28.937Z,70.62
2022-09-05T06:33:28.778Z,70.83
2022-09-05T06:34:35.867Z,71.12
2022-09-05T06:35:29.718Z,69.46
2022-09-05T06:36:28.730Z,69.96
2022-09-05T06:37:28.730Z,69.96
2022-09-05T06:38:28.704Z,71.23
2022-09-05T06:39:28.778Z,72.47
2022-09-05T06:40:32.045Z,73.44
2022-09-05T06:41:29.755Z,73.60
2022-09-05T06:42:42.812Z,73.20
2022-09-05T06:43:29.702Z,73.47
2022-09-05T06:44:28.686Z,73.13
2022-09-05T06:45:28.994Z,72.33
2022-09-05T06:46:50.597Z,72.83
2022-09-05T06:47:33.960Z,72.26
2022-09-05T06:48:44.149Z,69.96
2022-09-05T06:49:37.291Z,68.70
2022-09-05T06:50:29.710Z,67.30
2022-09-05T06:51:29.638Z,68.66
2022-09-05T06:52:30.407Z,70.43
2022-09-05T06:53:28.582Z,70.23
2022-09-05T06:54:28.619Z,70.73
2022-09-05T06:55:28.587Z,70.69
2022-09-05T06:56:28.550Z,70.12
2022-09-05T06:57:28.572Z,70.73
2022-09-05T06:58:28.611Z,71.83
2022-09-05T06:59:28.583Z,71.23
2022-09-05T07:00:28.640Z,70.73
2022-09-05T07:01:55.204Z,70.83
2022-09-05T07:02:59.439Z,71.36
2022-09-05T07:03:29.771Z,72.53
2022-09-05T07:05:21.766Z,73.03
2022-09-05T07:05:38.680Z,72.50
2022-09-05T07:06:59.339Z,72.30
2022-09-05T07:07:29.508Z,70.86
2022-09-05T07:08:35.965Z,70.92
2022-09-05T07:09:29.478Z,70.43
2022-09-05T07:10:38.312Z,70.69
2022-09-05T07:11:30.486Z,70.09
2022-09-05T07:12:30.184Z,69.26
2022-09-05T07:13:29.083Z,68.56
2022-09-05T07:14:29.452Z,70.56
2022-09-05T07:15:28.434Z,70.32
2022-09-05T07:16:37.468Z,71.26
2022-09-05T07:17:29.399Z,72.39
2022-09-05T07:18:30.008Z,71.50
2022-09-05T07:19:28.420Z,71.36
2022-09-05T07:20:28.567Z,71.16
2022-09-05T07:21:28.399Z,70.96
2022-09-05T07:22:47.925Z,69.99
2022-09-05T07:23:52.740Z,70.26
2022-09-05T07:24:53.499Z,69.43
2022-09-05T07:25:31.630Z,68.82
2022-09-05T07:26:29.360Z,68.63
2022-09-05T07:27:29.350Z,68.73
2022-09-05T07:28:30.517Z,68.63
2022-09-05T07:29:28.322Z,68.13
2022-09-05T07:30:28.348Z,67.93
2022-09-05T07:31:37.922Z,68.10
2022-09-05T07:32:29.313Z,68.19
2022-09-05T07:33:28.433Z,67.36
2022-09-05T07:34:28.281Z,67.99
2022-09-05T07:35:28.274Z,67.90
2022-09-05T07:36:28.293Z,68.19
2022-09-05T07:37:28.351Z,67.46
2022-09-05T07:38:48.345Z,67.49
2022-09-05T07:39:29.648Z,67.90
2022-09-05T07:40:29.369Z,67.99
2022-09-05T07:41:28.282Z,68.40
2022-09-05T07:42:28.247Z,66.07
2022-09-05T07:43:28.352Z,64.58
2022-09-05T07:44:28.281Z,64.97
2022-09-05T07:45:28.248Z,64.84
2022-09-05T07:46:28.220Z,64.75
2022-09-05T07:47:28.225Z,65.37
2022-09-05T07:48:35.053Z,66.56
2022-09-05T07:49:31.118Z,66.86
2022-09-05T07:52:32.563Z,67.80
2022-09-05T07:55:26.246Z,67.90
2022-09-05T07:56:49.701Z,66.40
2022-09-05T07:56:58.765Z,63.16
2022-09-05T07:57:04.794Z,62.86
2022-09-05T07:57:06.157Z,64.72
2022-09-05T07:57:10.790Z,63.06
2022-09-05T07:57:31.689Z,63.16
2022-09-05T07:58:29.123Z,62.93
2022-09-05T07:59:28.173Z,63.13
2022-09-05T08:00:29.676Z,61.28
2022-09-05T08:01:28.190Z,59.70
2022-09-05T08:02:28.122Z,59.65
2022-09-05T08:03:28.073Z,57.71
2022-09-05T08:04:28.066Z,57.35
2022-09-05T08:05:35.199Z,56.84
2022-09-05T08:07:45.859Z,56.69
2022-09-05T08:07:48.854Z,56.86
2022-09-05T08:08:29.103Z,58.03
2022-09-05T08:10:09.204Z,57.12
2022-09-05T08:10:31.435Z,57.44
2022-09-05T08:11:29.027Z,58.59
2022-09-05T08:12:28.411Z,60.53
2022-09-05T08:13:28.925Z,59.67
2022-09-05T08:14:45.269Z,59.80
2022-09-05T08:16:10.379Z,61.61
2022-09-05T08:16:29.967Z,62.89
2022-09-05T08:17:30.140Z,64.22
2022-09-05T08:18:28.546Z,63.49
2022-09-05T08:19:27.979Z,63.20
2022-09-05T08:20:27.999Z,62.80
2022-09-05T08:21:28.094Z,61.45
2022-09-05T08:22:27.962Z,59.67
2022-09-05T08:23:27.911Z,59.80
2022-09-05T08:24:28.948Z,59.38
2022-09-05T08:25:37.587Z,59.58
2022-09-05T08:26:29.546Z,59.55
2022-09-05T08:27:28.546Z,58.80
2022-09-05T08:28:39.290Z,57.58
2022-09-05T08:29:28.925Z,58.23
2022-09-05T08:30:28.168Z,58.30
2022-09-05T08:31:28.956Z,58.43
2022-09-05T08:32:32.130Z,60.30
2022-09-05T08:33:28.841Z,59.78
2022-09-05T08:34:31.510Z,60.10
2022-09-05T08:35:28.880Z,60.50
2022-09-05T08:36:27.822Z,60.27
2022-09-05T08:37:27.858Z,60.27
2022-09-05T08:38:27.843Z,59.55
2022-09-05T08:39:28.902Z,59.94
2022-09-05T08:40:27.902Z,59.97
2022-09-05T08:41:50.403Z,61.29
2022-09-05T08:42:28.875Z,60.86
2022-09-05T08:46:35.412Z,60.10
2022-09-05T08:46:40.343Z,59.97
2022-09-05T08:46:40.903Z,59.62
2022-09-05T08:46:44.583Z,59.97
2022-09-05T08:47:31.923Z,59.92
2022-09-05T08:48:28.831Z,59.81
2022-09-05T08:49:37.035Z,58.77
2022-09-05T08:50:28.872Z,57.43
2022-09-05T08:51:27.799Z,57.23
2022-09-05T08:52:27.742Z,56.71
2022-09-05T08:53:45.903Z,56.46
2022-09-05T08:54:28.812Z,56.58
2022-09-05T08:55:27.725Z,55.66
2022-09-05T08:56:27.743Z,56.29
2022-09-05T08:57:27.738Z,56.48
2022-09-05T08:58:27.719Z,56.71
2022-09-05T08:59:33.045Z,55.99
2022-09-05T09:00:31.411Z,55.77
2022-09-05T09:01:27.698Z,55.87
2022-09-05T09:02:47.646Z,55.77
2022-09-05T09:03:28.789Z,55.22
2022-09-05T09:05:01.629Z,53.17
2022-09-05T09:06:12.290Z,53.91
2022-09-05T09:06:28.625Z,54.65
2022-09-05T09:07:47.971Z,55.32
2022-09-05T09:08:28.652Z,53.91
2022-09-05T09:09:27.694Z,53.59
2022-09-05T09:10:27.681Z,54.88
2022-09-05T09:11:27.641Z,56.54
2022-09-05T09:12:27.850Z,55.94
2022-09-05T09:13:28.111Z,54.55
2022-09-05T09:14:30.593Z,54.50
2022-09-05T09:15:27.607Z,53.69
2022-09-05T09:16:28.610Z,52.11
2022-09-05T09:17:29.297Z,50.90
2022-09-05T09:18:27.574Z,51.50
2022-09-05T09:19:29.030Z,52.97
2022-09-05T09:20:27.646Z,53.42
2022-09-05T09:21:27.627Z,53.91
2022-09-05T09:22:28.616Z,53.56
2022-09-05T09:23:31.915Z,53.27
2022-09-05T09:24:27.603Z,52.75
2022-09-05T09:25:30.641Z,51.93
2022-09-05T09:26:28.551Z,51.20
2022-09-05T09:27:36.427Z,51.69
2022-09-05T09:28:49.488Z,51.15
2022-09-05T09:29:28.510Z,49.41
2022-09-05T09:30:27.554Z,49.48
2022-09-05T09:31:27.585Z,48.90
2022-09-05T09:32:27.497Z,49.11
2022-09-05T09:33:27.563Z,48.80
2022-09-05T09:34:27.529Z,48.38
2022-09-05T09:35:27.509Z,47.45
2022-09-05T09:36:27.495Z,46.84
2022-09-05T09:37:35.578Z,46.65
2022-09-05T09:38:28.460Z,47.47
2022-09-05T09:39:39.204Z,47.99
2022-09-05T09:40:28.437Z,48.26
2022-09-05T09:41:27.473Z,47.67
2022-09-05T09:42:33.062Z,48.65
2022-09-05T09:43:28.444Z,49.58
2022-09-05T09:44:27.493Z,49.53
2022-09-05T09:45:28.963Z,49.43
2022-09-05T09:46:27.479Z,49.21
2022-09-05T09:47:27.422Z,48.52
2022-09-05T09:48:27.398Z,48.41
2022-09-05T09:49:27.404Z,48.21
2022-09-05T09:50:27.375Z,48.01
2022-09-05T09:51:27.422Z,47.36
2022-09-05T09:52:27.401Z,46.53
2022-09-05T09:53:27.352Z,46.43
2022-09-05T09:54:27.376Z,47.79
2022-09-05T09:55:27.337Z,49.90
2022-09-05T09:56:27.349Z,49.85
2022-09-05T09:57:27.340Z,49.80
2022-09-05T09:58:29.188Z,51.54
2022-09-05T09:59:27.335Z,51.05
2022-09-05T10:00:27.305Z,51.05
2022-09-05T10:01:36.043Z,51.15
2022-09-05T10:04:57.930Z,49.77
2022-09-05T10:10:04.376Z,48.41
2022-09-05T10:10:39.559Z,47.01
2022-09-05T10:10:44.211Z,47.49
2022-09-05T10:10:45.153Z,49.31
2022-09-05T10:10:45.890Z,49.16
2022-09-05T10:10:48.844Z,49.29
2022-09-05T10:10:57.332Z,49.82
2022-09-05T10:10:57.644Z,49.29
2022-09-05T10:12:29.309Z,49.21
2022-09-05T10:13:27.459Z,47.62
2022-09-05T10:14:47.832Z,49.58
2022-09-05T10:15:31.648Z,49.16
2022-09-05T10:16:27.317Z,49.46
2022-09-05T10:17:27.205Z,49.38
2022-09-05T10:18:27.207Z,48.89
2022-09-05T10:20:29.641Z,49.92
2022-09-05T10:21:28.167Z,49.60
2022-09-05T10:22:36.534Z,49.38
2022-09-05T10:23:29.161Z,49.26
2022-09-05T10:24:27.245Z,48.57
2022-09-05T10:25:28.052Z,48.18
2022-09-05T10:26:27.518Z,48.85
2022-09-05T10:27:27.139Z,48.96
2022-09-05T10:28:27.163Z,48.96
2022-09-05T10:29:36.532Z,48.47
2022-09-05T10:31:09.582Z,47.47
2022-09-05T10:33:02.434Z,48.77
2022-09-05T10:35:07.489Z,47.74
2022-09-05T10:35:16.769Z,46.94
2022-09-05T10:35:16.836Z,46.23
2022-09-05T10:35:28.447Z,47.74
2022-09-05T10:36:27.160Z,46.86
2022-09-05T10:37:27.077Z,46.62
2022-09-05T10:38:27.122Z,45.34
2022-09-05T10:39:27.171Z,46.27
2022-09-05T10:40:27.077Z,46.10
2022-09-05T10:41:27.054Z,46.31
2022-09-05T10:42:27.072Z,45.70
2022-09-05T10:43:27.070Z,45.53
2022-09-05T10:44:27.115Z,46.02
2022-09-05T10:45:31.362Z,45.43
2022-09-05T10:46:49.410Z,45.51
2022-09-05T10:47:29.042Z,44.45
2022-09-05T10:48:27.026Z,44.40
2022-09-05T10:49:30.493Z,45.20
2022-09-05T10:50:27.058Z,45.94
2022-09-05T10:51:28.269Z,47.04
2022-09-05T10:52:27.020Z,47.83
2022-09-05T10:53:27.042Z,47.66
2022-09-05T10:54:28.059Z,49.08
2022-09-05T10:55:26.991Z,48.74
2022-09-05T10:56:28.623Z,48.61
2022-09-05T10:57:26.918Z,47.83
2022-09-05T10:58:40.361Z,46.43
2022-09-05T11:01:19.350Z,46.43
2022-09-05T11:02:16.496Z,47.41
2022-09-05T11:02:30.041Z,46.60
2022-09-05T11:02:33.593Z,46.13
2022-09-05T11:03:29.286Z,45.01
2022-09-05T11:04:26.976Z,45.26
2022-09-05T11:05:27.493Z,43.72
2022-09-05T11:06:26.914Z,42.50
2022-09-05T11:07:29.804Z,41.68
2022-09-05T11:08:26.855Z,41.70
2022-09-05T11:09:26.833Z,42.76
2022-09-05T11:10:26.833Z,44.06
2022-09-05T11:11:34.068Z,44.64
2022-09-05T11:12:27.849Z,45.05
2022-09-05T11:13:27.018Z,45.56
2022-09-05T11:14:27.399Z,47.21
2022-09-05T11:15:26.793Z,47.21
2022-09-05T11:16:26.858Z,48.04
2022-09-05T11:17:26.780Z,48.68
2022-09-05T11:18:27.121Z,49.01
2022-09-05T11:19:27.839Z,49.08
2022-09-05T11:20:34.959Z,48.11
2022-09-05T11:21:27.806Z,47.97
2022-09-05T11:22:26.735Z,47.45
2022-09-05T11:23:26.776Z,46.94
2022-09-05T11:24:27.665Z,47.53
2022-09-05T11:25:39.681Z,46.44
2022-09-05T11:26:27.723Z,47.65
2022-09-05T11:27:26.723Z,47.28
2022-09-05T11:28:27.025Z,46.91
2022-09-05T11:29:26.705Z,47.30
2022-09-05T11:30:29.938Z,47.13
2022-09-05T11:31:34.080Z,46.61
2022-09-05T11:37:44.384Z,46.11
2022-09-05T11:39:46.814Z,45.46
2022-09-05T11:39:50.616Z,46.17
2022-09-05T11:39:51.297Z,44.35
2022-09-05T11:40:00.115Z,44.96
2022-09-05T11:40:06.455Z,44.43
2022-09-05T11:40:09.797Z,44.82
2022-09-05T11:40:10.549Z,44.94
2022-09-05T11:41:29.588Z,45.41
2022-09-05T11:42:26.607Z,45.12
2022-09-05T11:43:26.609Z,45.09
2022-09-05T11:44:27.396Z,44.68
2022-09-05T11:45:27.589Z,45.39
2022-09-05T11:46:27.833Z,45.51
2022-09-05T11:47:30.285Z,46.34
2022-09-05T11:48:27.547Z,46.15
2022-09-05T11:49:26.576Z,46.03
2022-09-05T11:50:26.527Z,46.22
2022-09-05T11:51:33.874Z,46.03
2022-09-05T11:52:27.546Z,46.81
2022-09-05T11:53:26.518Z,46.20
2022-09-05T11:54:26.550Z,46.42
2022-09-05T11:55:26.515Z,46.52
2022-09-05T11:56:28.850Z,44.51
2022-09-05T11:57:33.143Z,43.89
2022-09-05T11:58:43.492Z,44.09
2022-09-05T11:59:33.511Z,43.77
2022-09-05T12:00:31.372Z,44.07
2022-09-05T12:01:43.047Z,44.05
2022-09-05T12:02:27.552Z,43.83
2022-09-05T12:03:57.287Z,42.11
2022-09-05T12:04:27.482Z,42.29
2022-09-05T12:05:48.523Z,41.47
2022-09-05T12:06:27.462Z,40.27
2022-09-05T12:07:31.906Z,40.47
2022-09-05T12:08:28.762Z,40.64
2022-09-05T12:09:26.436Z,40.16
2022-09-05T12:10:43.396Z,40.72
2022-09-05T12:11:27.440Z,40.76
2022-09-05T12:12:38.660Z,42.08
2022-09-05T12:13:29.346Z,41.68
2022-09-05T12:14:26.424Z,41.98
2022-09-05T12:15:26.391Z,41.68
2022-09-05T12:16:26.859Z,41.56
2022-09-05T12:17:34.950Z,40.70
2022-09-05T12:18:27.644Z,40.39
2022-09-05T12:19:26.347Z,40.48
2022-09-05T12:20:26.390Z,41.96
2022-09-05T12:21:26.361Z,41.05
2022-09-05T12:22:26.328Z,40.64
2022-09-05T12:23:39.916Z,40.48
2022-09-05T12:25:23.817Z,42.32
2022-09-05T12:27:39.156Z,42.55
2022-09-05T12:27:39.386Z,41.92
2022-09-05T12:27:39.427Z,42.11
2022-09-05T12:29:28.176Z,43.87
2022-09-05T12:29:36.190Z,44.19
2022-09-05T12:30:30.078Z,45.34
2022-09-05T12:32:36.385Z,46.04
2022-09-05T12:33:32.332Z,46.17
2022-09-05T12:36:05.683Z,47.00
2022-09-05T12:36:06.882Z,46.48
2022-09-05T12:36:13.111Z,47.47
2022-09-05T12:40:53.949Z,47.20
2022-09-05T12:40:56.296Z,47.03
2022-09-05T12:40:56.746Z,47.08
2022-09-05T12:41:34.718Z,46.56
2022-09-05T12:41:35.013Z,46.03
2022-09-05T12:41:36.786Z,45.51
2022-09-05T12:42:34.479Z,45.21
2022-09-05T12:44:40.354Z,45.31
2022-09-05T12:44:42.523Z,45.31
2022-09-05T12:45:37.284Z,45.29
2022-09-05T12:46:27.174Z,44.98
2022-09-05T12:47:26.174Z,44.68
2022-09-05T12:48:26.271Z,43.99
2022-09-05T12:49:28.591Z,44.34
2022-09-05T12:50:27.123Z,43.85
2022-09-05T12:51:46.120Z,44.05
2022-09-05T12:52:27.168Z,44.05
2022-09-05T12:53:26.674Z,44.02
2022-09-05T12:54:33.565Z,43.93
2022-09-05T12:55:27.059Z,44.32
2022-09-05T12:57:46.304Z,44.73
2022-09-05T13:02:57.166Z,43.83
2022-09-05T13:02:58.598Z,43.93
2022-09-05T13:02:58.937Z,43.65
2022-09-05T13:02:59.446Z,44.36
2022-09-05T13:03:03.808Z,44.85
2022-09-05T13:03:13.668Z,43.95
2022-09-05T13:03:29.862Z,42.53
2022-09-05T13:04:31.746Z,42.53
2022-09-05T13:05:28.148Z,42.53
2022-09-05T13:06:26.238Z,43.14
2022-09-05T13:07:27.001Z,42.65
2022-09-05T13:08:26.038Z,43.24
2022-09-05T13:10:08.980Z,43.24
2022-09-05T13:14:49.122Z,43.04
2022-09-05T13:14:49.894Z,43.02
2022-09-05T13:14:52.851Z,42.21
2022-09-05T13:14:57.662Z,42.33
2022-09-05T13:14:59.082Z,42.11
2022-09-05T13:15:27.652Z,42.25
2022-09-05T13:16:25.991Z,42.55
2022-09-05T13:17:25.929Z,43.36
2022-09-05T13:18:25.964Z,43.83
2022-09-05T13:19:25.933Z,42.53
2022-09-05T13:20:25.962Z,42.80
2022-09-05T13:21:25.940Z,43.00
2022-09-05T13:22:25.887Z,42.33
2022-09-05T13:23:25.943Z,42.68
2022-09-05T13:24:26.666Z,41.98
2022-09-05T13:25:25.938Z,41.47
2022-09-05T13:26:25.894Z,41.17
2022-09-05T13:27:25.870Z,40.78